sensor_id;sensor_type;location;lat;lon;timestamp;temperature;humidity
47626;DHT22;33342;45.574;9.252;2022-11-20T00:01:23;10.70;99.90
47626;DHT22;33342;45.574;9.252;2022-11-20T00:03:52;10.70;99.90
47626;DHT22;33342;45.574;9.252;2022-11-20T00:06:20;10.70;99.90
47626;DHT22;33342;45.574;9.252;2022-11-20T00:08:48;10.70;99.90
47626;DHT22;33342;45.574;9.252;2022-11-20T00:11:17;10.70;99.90
47626;DHT22;33342;45.574;9.252;2022-11-20T00:13:47;10.70;99.90
47626;DHT22;33342;45.574;9.252;2022-11-20T00:16:16;10.70;99.90
47626;DHT22;33342;45.574;9.252;2022-11-20T00:18:44;10.70;99.90
47626;DHT22;33342;45.574;9.252;2022-11-20T00:21:17;10.70;99.90
47626;DHT22;33342;45.574;9.252;2022-11-20T00:23:45;10.70;99.90
47626;DHT22;33342;45.574;9.252;2022-11-20T00:26:17;10.70;99.90
47626;DHT22;33342;45.574;9.252;2022-11-20T00:28:50;10.60;99.90
47626;DHT22;33342;45.574;9.252;2022-11-20T00:31:18;10.60;99.90
47626;DHT22;33342;45.574;9.252;2022-11-20T00:33:45;10.60;99.90
47626;DHT22;33342;45.574;9.252;2022-11-20T00:36:18;10.60;99.90
47626;DHT22;33342;45.574;9.252;2022-11-20T00:38:45;10.60;99.90
47626;DHT22;33342;45.574;9.252;2022-11-20T00:41:15;10.60;99.90
47626;DHT22;33342;45.574;9.252;2022-11-20T00:43:42;10.60;99.90
47626;DHT22;33342;45.574;9.252;2022-11-20T00:46:13;10.60;99.90
47626;DHT22;33342;45.574;9.252;2022-11-20T00:48:41;10.60;99.90
47626;DHT22;33342;45.574;9.252;2022-11-20T00:51:09;10.60;99.90
47626;DHT22;33342;45.574;9.252;2022-11-20T00:53:37;10.60;99.90
47626;DHT22;33342;45.574;9.252;2022-11-20T00:56:07;10.60;99.90
47626;DHT22;33342;45.574;9.252;2022-11-20T00:58:36;10.60;99.90
47626;DHT22;33342;45.574;9.252;2022-11-20T01:03:35;10.60;99.90
47626;DHT22;33342;45.574;9.252;2022-11-20T01:06:11;10.60;99.90
47626;DHT22;33342;45.574;9.252;2022-11-20T01:08:39;10.60;99.90
47626;DHT22;33342;45.574;9.252;2022-11-20T01:11:08;10.60;99.90
47626;DHT22;33342;45.574;9.252;2022-11-20T01:13:36;10.60;99.90
47626;DHT22;33342;45.574;9.252;2022-11-20T01:16:08;10.50;99.90
47626;DHT22;33342;45.574;9.252;2022-11-20T01:18:37;10.60;99.90
47626;DHT22;33342;45.574;9.252;2022-11-20T01:21:06;10.50;99.90
47626;DHT22;33342;45.574;9.252;2022-11-20T01:23:36;10.50;99.90
47626;DHT22;33342;45.574;9.252;2022-11-20T01:26:05;10.50;99.90
47626;DHT22;33342;45.574;9.252;2022-11-20T01:28:33;10.50;99.90
47626;DHT22;33342;45.574;9.252;2022-11-20T01:31:00;10.40;99.90
47626;DHT22;33342;45.574;9.252;2022-11-20T01:33:27;10.40;99.90
47626;DHT22;33342;45.574;9.252;2022-11-20T01:36:03;10.40;99.90
47626;DHT22;33342;45.574;9.252;2022-11-20T01:38:31;10.30;99.90
47626;DHT22;33342;45.574;9.252;2022-11-20T01:40:58;10.30;99.90
47626;DHT22;33342;45.574;9.252;2022-11-20T01:43:26;10.30;99.90
47626;DHT22;33342;45.574;9.252;2022-11-20T01:48:23;10.30;99.90
47626;DHT22;33342;45.574;9.252;2022-11-20T01:50:52;10.30;99.90
47626;DHT22;33342;45.574;9.252;2022-11-20T01:53:25;10.30;99.90
47626;DHT22;33342;45.574;9.252;2022-11-20T01:55:56;10.30;99.90
47626;DHT22;33342;45.574;9.252;2022-11-20T01:58:30;10.30;99.90
47626;DHT22;33342;45.574;9.252;2022-11-20T02:00:59;10.20;99.90
47626;DHT22;33342;45.574;9.252;2022-11-20T02:03:26;10.30;99.90
47626;DHT22;33342;45.574;9.252;2022-11-20T02:06:16;10.20;99.90
47626;DHT22;33342;45.574;9.252;2022-11-20T02:08:45;10.20;99.90
47626;DHT22;33342;45.574;9.252;2022-11-20T02:11:12;10.20;99.90
47626;DHT22;33342;45.574;9.252;2022-11-20T02:13:40;10.20;99.90
47626;DHT22;33342;45.574;9.252;2022-11-20T02:18:43;10.20;99.90
47626;DHT22;33342;45.574;9.252;2022-11-20T02:24:07;10.20;99.90
47626;DHT22;33342;45.574;9.252;2022-11-20T02:26:42;10.10;99.90
47626;DHT22;33342;45.574;9.252;2022-11-20T02:29:11;10.10;99.90
47626;DHT22;33342;45.574;9.252;2022-11-20T02:31:40;10.10;99.90
47626;DHT22;33342;45.574;9.252;2022-11-20T02:34:08;10.10;99.90
47626;DHT22;33342;45.574;9.252;2022-11-20T02:36:36;10.10;99.90
47626;DHT22;33342;45.574;9.252;2022-11-20T02:39:05;10.10;99.90
47626;DHT22;33342;45.574;9.252;2022-11-20T02:41:36;10.10;99.90
47626;DHT22;33342;45.574;9.252;2022-11-20T02:44:04;10.00;99.90
47626;DHT22;33342;45.574;9.252;2022-11-20T02:46:32;10.00;99.90
47626;DHT22;33342;45.574;9.252;2022-11-20T02:49:04;10.10;99.90
47626;DHT22;33342;45.574;9.252;2022-11-20T02:51:31;10.00;99.90
47626;DHT22;33342;45.574;9.252;2022-11-20T02:53:59;10.00;99.90
47626;DHT22;33342;45.574;9.252;2022-11-20T02:56:27;10.00;99.90
47626;DHT22;33342;45.574;9.252;2022-11-20T02:58:54;10.00;99.90
47626;DHT22;33342;45.574;9.252;2022-11-20T03:01:22;10.00;99.90
47626;DHT22;33342;45.574;9.252;2022-11-20T03:03:49;10.00;99.90
47626;DHT22;33342;45.574;9.252;2022-11-20T03:06:16;9.90;99.90
47626;DHT22;33342;45.574;9.252;2022-11-20T03:08:43;9.90;99.90
47626;DHT22;33342;45.574;9.252;2022-11-20T03:11:10;9.90;99.90
47626;DHT22;33342;45.574;9.252;2022-11-20T03:13:38;9.90;99.90
47626;DHT22;33342;45.574;9.252;2022-11-20T03:16:12;9.90;99.90
47626;DHT22;33342;45.574;9.252;2022-11-20T03:18:40;9.90;99.90
47626;DHT22;33342;45.574;9.252;2022-11-20T03:21:09;9.90;99.90
47626;DHT22;33342;45.574;9.252;2022-11-20T03:23:36;9.90;99.90
47626;DHT22;33342;45.574;9.252;2022-11-20T03:28:38;9.90;99.90
47626;DHT22;33342;45.574;9.252;2022-11-20T03:31:13;9.80;99.90
47626;DHT22;33342;45.574;9.252;2022-11-20T03:33:41;9.80;99.90
47626;DHT22;33342;45.574;9.252;2022-11-20T03:36:12;9.80;99.90
47626;DHT22;33342;45.574;9.252;2022-11-20T03:38:40;9.70;99.90
47626;DHT22;33342;45.574;9.252;2022-11-20T03:41:13;9.70;99.90
47626;DHT22;33342;45.574;9.252;2022-11-20T03:43:40;9.70;99.90
47626;DHT22;33342;45.574;9.252;2022-11-20T03:46:08;9.70;99.90
47626;DHT22;33342;45.574;9.252;2022-11-20T03:48:35;9.70;99.90
47626;DHT22;33342;45.574;9.252;2022-11-20T03:53:39;9.60;99.90
47626;DHT22;33342;45.574;9.252;2022-11-20T03:56:07;9.60;99.90
47626;DHT22;33342;45.574;9.252;2022-11-20T03:58:35;9.60;99.90
47626;DHT22;33342;45.574;9.252;2022-11-20T04:03:38;9.60;99.90
47626;DHT22;33342;45.574;9.252;2022-11-20T04:06:09;9.70;99.90
47626;DHT22;33342;45.574;9.252;2022-11-20T04:08:37;9.70;99.90
47626;DHT22;33342;45.574;9.252;2022-11-20T04:13:39;9.60;99.90
47626;DHT22;33342;45.574;9.252;2022-11-20T04:16:07;9.70;99.90
47626;DHT22;33342;45.574;9.252;2022-11-20T04:18:35;9.70;99.90
47626;DHT22;33342;45.574;9.252;2022-11-20T04:21:03;9.60;99.90
47626;DHT22;33342;45.574;9.252;2022-11-20T04:23:31;9.60;99.90
47626;DHT22;33342;45.574;9.252;2022-11-20T04:26:07;9.60;99.90
47626;DHT22;33342;45.574;9.252;2022-11-20T04:28:35;9.60;99.90
47626;DHT22;33342;45.574;9.252;2022-11-20T04:31:23;9.60;99.90
47626;DHT22;33342;45.574;9.252;2022-11-20T04:33:51;9.60;99.90
47626;DHT22;33342;45.574;9.252;2022-11-20T04:36:24;9.50;99.90
47626;DHT22;33342;45.574;9.252;2022-11-20T04:38:52;9.50;99.90
47626;DHT22;33342;45.574;9.252;2022-11-20T04:41:30;9.50;99.90
47626;DHT22;33342;45.574;9.252;2022-11-20T04:43:59;9.50;99.90
47626;DHT22;33342;45.574;9.252;2022-11-20T04:46:35;9.40;99.90
47626;DHT22;33342;45.574;9.252;2022-11-20T04:49:03;9.40;99.90
47626;DHT22;33342;45.574;9.252;2022-11-20T04:51:30;9.40;99.90
47626;DHT22;33342;45.574;9.252;2022-11-20T04:53:57;9.50;99.90
47626;DHT22;33342;45.574;9.252;2022-11-20T04:56:25;9.40;99.90
47626;DHT22;33342;45.574;9.252;2022-11-20T04:58:52;9.40;99.90
47626;DHT22;33342;45.574;9.252;2022-11-20T05:01:21;9.40;99.90
47626;DHT22;33342;45.574;9.252;2022-11-20T05:03:49;9.40;99.90
47626;DHT22;33342;45.574;9.252;2022-11-20T05:06:18;9.40;99.90
47626;DHT22;33342;45.574;9.252;2022-11-20T05:08:46;9.40;99.90
47626;DHT22;33342;45.574;9.252;2022-11-20T05:11:16;9.40;99.90
47626;DHT22;33342;45.574;9.252;2022-11-20T05:13:43;9.40;99.90
47626;DHT22;33342;45.574;9.252;2022-11-20T05:16:16;9.40;99.90
47626;DHT22;33342;45.574;9.252;2022-11-20T05:18:44;9.40;99.90
47626;DHT22;33342;45.574;9.252;2022-11-20T05:21:12;9.40;99.90
47626;DHT22;33342;45.574;9.252;2022-11-20T05:23:39;9.40;99.90
47626;DHT22;33342;45.574;9.252;2022-11-20T05:26:08;9.40;99.90
47626;DHT22;33342;45.574;9.252;2022-11-20T05:28:38;9.40;99.90
47626;DHT22;33342;45.574;9.252;2022-11-20T05:31:11;9.30;99.90
47626;DHT22;33342;45.574;9.252;2022-11-20T05:33:42;9.30;99.90
47626;DHT22;33342;45.574;9.252;2022-11-20T05:36:12;9.30;99.90
47626;DHT22;33342;45.574;9.252;2022-11-20T05:38:39;9.30;99.90
47626;DHT22;33342;45.574;9.252;2022-11-20T05:41:08;9.30;99.90
47626;DHT22;33342;45.574;9.252;2022-11-20T05:43:37;9.40;99.90
47626;DHT22;33342;45.574;9.252;2022-11-20T05:46:05;9.40;99.90
47626;DHT22;33342;45.574;9.252;2022-11-20T05:48:33;9.40;99.90
47626;DHT22;33342;45.574;9.252;2022-11-20T05:51:02;9.40;99.90
47626;DHT22;33342;45.574;9.252;2022-11-20T05:53:29;9.40;99.90
47626;DHT22;33342;45.574;9.252;2022-11-20T05:56:20;9.40;99.90
47626;DHT22;33342;45.574;9.252;2022-11-20T05:58:48;9.40;99.90
47626;DHT22;33342;45.574;9.252;2022-11-20T06:01:25;9.40;99.90
47626;DHT22;33342;45.574;9.252;2022-11-20T06:03:53;9.30;99.90
47626;DHT22;33342;45.574;9.252;2022-11-20T06:06:20;9.30;99.90
47626;DHT22;33342;45.574;9.252;2022-11-20T06:08:48;9.30;99.90
47626;DHT22;33342;45.574;9.252;2022-11-20T06:11:15;9.30;99.90
47626;DHT22;33342;45.574;9.252;2022-11-20T06:13:43;9.30;99.90
47626;DHT22;33342;45.574;9.252;2022-11-20T06:16:11;9.30;99.90
47626;DHT22;33342;45.574;9.252;2022-11-20T06:18:39;9.30;99.90
47626;DHT22;33342;45.574;9.252;2022-11-20T06:21:10;9.30;99.90
47626;DHT22;33342;45.574;9.252;2022-11-20T06:23:37;9.30;99.90
47626;DHT22;33342;45.574;9.252;2022-11-20T06:26:06;9.30;99.90
47626;DHT22;33342;45.574;9.252;2022-11-20T06:28:34;9.30;99.90
47626;DHT22;33342;45.574;9.252;2022-11-20T06:31:02;9.30;99.90
47626;DHT22;33342;45.574;9.252;2022-11-20T06:33:29;9.30;99.90
47626;DHT22;33342;45.574;9.252;2022-11-20T06:35:57;9.30;99.90
47626;DHT22;33342;45.574;9.252;2022-11-20T06:38:28;9.30;99.90
47626;DHT22;33342;45.574;9.252;2022-11-20T06:40:55;9.30;99.90
47626;DHT22;33342;45.574;9.252;2022-11-20T06:43:23;9.30;99.90
47626;DHT22;33342;45.574;9.252;2022-11-20T06:45:53;9.30;99.90
47626;DHT22;33342;45.574;9.252;2022-11-20T06:48:21;9.30;99.90
47626;DHT22;33342;45.574;9.252;2022-11-20T06:50:49;9.30;99.90
47626;DHT22;33342;45.574;9.252;2022-11-20T06:53:16;9.30;99.90
47626;DHT22;33342;45.574;9.252;2022-11-20T06:55:44;9.30;99.90
47626;DHT22;33342;45.574;9.252;2022-11-20T06:58:13;9.20;99.90
47626;DHT22;33342;45.574;9.252;2022-11-20T07:00:40;9.20;99.90
47626;DHT22;33342;45.574;9.252;2022-11-20T07:03:08;9.20;99.90
47626;DHT22;33342;45.574;9.252;2022-11-20T07:05:36;9.20;99.90
47626;DHT22;33342;45.574;9.252;2022-11-20T07:08:05;9.20;99.90
47626;DHT22;33342;45.574;9.252;2022-11-20T07:10:32;9.20;99.90
47626;DHT22;33342;45.574;9.252;2022-11-20T07:12:59;9.20;99.90
47626;DHT22;33342;45.574;9.252;2022-11-20T07:15:26;9.20;99.90
47626;DHT22;33342;45.574;9.252;2022-11-20T07:17:53;9.30;99.90
47626;DHT22;33342;45.574;9.252;2022-11-20T07:20:20;9.30;99.90
47626;DHT22;33342;45.574;9.252;2022-11-20T07:22:53;9.20;99.90
47626;DHT22;33342;45.574;9.252;2022-11-20T07:25:22;9.30;99.90
47626;DHT22;33342;45.574;9.252;2022-11-20T07:27:49;9.30;99.90
47626;DHT22;33342;45.574;9.252;2022-11-20T07:30:17;9.30;99.90
47626;DHT22;33342;45.574;9.252;2022-11-20T07:32:50;9.30;99.90
47626;DHT22;33342;45.574;9.252;2022-11-20T07:35:18;9.30;99.90
47626;DHT22;33342;45.574;9.252;2022-11-20T07:37:45;9.40;99.90
47626;DHT22;33342;45.574;9.252;2022-11-20T07:40:14;9.40;99.90
47626;DHT22;33342;45.574;9.252;2022-11-20T07:42:52;9.40;99.90
47626;DHT22;33342;45.574;9.252;2022-11-20T07:45:21;9.40;99.90
47626;DHT22;33342;45.574;9.252;2022-11-20T07:47:48;9.40;99.90
47626;DHT22;33342;45.574;9.252;2022-11-20T07:50:16;9.50;99.90
47626;DHT22;33342;45.574;9.252;2022-11-20T07:52:43;9.50;99.90
47626;DHT22;33342;45.574;9.252;2022-11-20T07:55:11;9.50;99.90
47626;DHT22;33342;45.574;9.252;2022-11-20T07:57:38;9.50;99.90
47626;DHT22;33342;45.574;9.252;2022-11-20T08:00:07;9.60;99.90
47626;DHT22;33342;45.574;9.252;2022-11-20T08:02:38;9.60;99.90
47626;DHT22;33342;45.574;9.252;2022-11-20T08:05:07;9.60;99.90
47626;DHT22;33342;45.574;9.252;2022-11-20T08:07:41;9.60;99.90
47626;DHT22;33342;45.574;9.252;2022-11-20T08:10:10;9.60;99.90
47626;DHT22;33342;45.574;9.252;2022-11-20T08:12:46;9.70;99.90
47626;DHT22;33342;45.574;9.252;2022-11-20T08:15:32;9.70;99.90
47626;DHT22;33342;45.574;9.252;2022-11-20T08:18:20;9.70;99.90
47626;DHT22;33342;45.574;9.252;2022-11-20T08:21:07;9.70;99.90
47626;DHT22;33342;45.574;9.252;2022-11-20T08:23:34;9.80;99.90
47626;DHT22;33342;45.574;9.252;2022-11-20T08:26:01;9.80;99.90
47626;DHT22;33342;45.574;9.252;2022-11-20T08:28:28;9.80;99.90
47626;DHT22;33342;45.574;9.252;2022-11-20T08:31:00;9.90;99.90
47626;DHT22;33342;45.574;9.252;2022-11-20T08:33:27;9.90;99.90
47626;DHT22;33342;45.574;9.252;2022-11-20T08:36:05;9.90;99.90
47626;DHT22;33342;45.574;9.252;2022-11-20T08:38:32;10.00;99.90
47626;DHT22;33342;45.574;9.252;2022-11-20T08:41:01;10.00;99.90
47626;DHT22;33342;45.574;9.252;2022-11-20T08:43:47;10.00;99.90
47626;DHT22;33342;45.574;9.252;2022-11-20T08:46:14;10.10;99.90
47626;DHT22;33342;45.574;9.252;2022-11-20T08:48:41;10.10;99.90
47626;DHT22;33342;45.574;9.252;2022-11-20T08:51:09;10.10;99.90
47626;DHT22;33342;45.574;9.252;2022-11-20T08:53:37;10.20;99.90
47626;DHT22;33342;45.574;9.252;2022-11-20T08:56:04;10.20;99.90
47626;DHT22;33342;45.574;9.252;2022-11-20T08:58:31;10.20;99.90
47626;DHT22;33342;45.574;9.252;2022-11-20T09:01:20;10.20;99.90
47626;DHT22;33342;45.574;9.252;2022-11-20T09:03:47;10.30;99.90
47626;DHT22;33342;45.574;9.252;2022-11-20T09:06:15;10.30;99.90
47626;DHT22;33342;45.574;9.252;2022-11-20T09:08:42;10.30;99.90
47626;DHT22;33342;45.574;9.252;2022-11-20T09:11:10;10.30;99.90
47626;DHT22;33342;45.574;9.252;2022-11-20T09:13:37;10.40;99.90
47626;DHT22;33342;45.574;9.252;2022-11-20T09:16:05;10.40;99.90
47626;DHT22;33342;45.574;9.252;2022-11-20T09:18:34;10.40;99.90
47626;DHT22;33342;45.574;9.252;2022-11-20T09:21:05;10.50;99.90
47626;DHT22;33342;45.574;9.252;2022-11-20T09:23:34;10.50;99.90
47626;DHT22;33342;45.574;9.252;2022-11-20T09:26:03;10.50;99.90
47626;DHT22;33342;45.574;9.252;2022-11-20T09:28:30;10.60;99.90
47626;DHT22;33342;45.574;9.252;2022-11-20T09:30:58;10.60;99.90
47626;DHT22;33342;45.574;9.252;2022-11-20T09:33:26;10.60;99.90
47626;DHT22;33342;45.574;9.252;2022-11-20T09:35:53;10.70;99.90
47626;DHT22;33342;45.574;9.252;2022-11-20T09:38:20;10.70;99.90
47626;DHT22;33342;45.574;9.252;2022-11-20T09:41:05;10.80;99.90
47626;DHT22;33342;45.574;9.252;2022-11-20T09:52:19;11.00;99.90
47626;DHT22;33342;45.574;9.252;2022-11-20T09:54:49;11.00;99.90
47626;DHT22;33342;45.574;9.252;2022-11-20T09:57:35;11.10;99.90
47626;DHT22;33342;45.574;9.252;2022-11-20T10:00:05;11.10;99.90
47626;DHT22;33342;45.574;9.252;2022-11-20T10:02:52;11.20;99.90
47626;DHT22;33342;45.574;9.252;2022-11-20T10:05:31;11.20;99.90
47626;DHT22;33342;45.574;9.252;2022-11-20T10:11:15;11.20;99.90
47626;DHT22;33342;45.574;9.252;2022-11-20T10:14:18;11.20;99.90
47626;DHT22;33342;45.574;9.252;2022-11-20T10:25:15;11.40;99.90
47626;DHT22;33342;45.574;9.252;2022-11-20T10:27:59;11.40;99.90
47626;DHT22;33342;45.574;9.252;2022-11-20T10:30:36;11.50;99.90
47626;DHT22;33342;45.574;9.252;2022-11-20T10:33:17;11.50;99.90
47626;DHT22;33342;45.574;9.252;2022-11-20T10:36:07;11.50;99.90
47626;DHT22;33342;45.574;9.252;2022-11-20T10:38:42;11.50;99.90
47626;DHT22;33342;45.574;9.252;2022-11-20T10:41:17;11.60;99.90
47626;DHT22;33342;45.574;9.252;2022-11-20T10:44:00;11.60;99.90
47626;DHT22;33342;45.574;9.252;2022-11-20T10:46:46;11.70;99.90
47626;DHT22;33342;45.574;9.252;2022-11-20T10:49:18;11.70;99.90
47626;DHT22;33342;45.574;9.252;2022-11-20T10:54:43;11.80;99.90
47626;DHT22;33342;45.574;9.252;2022-11-20T10:57:24;11.80;99.90
47626;DHT22;33342;45.574;9.252;2022-11-20T11:00:03;11.90;99.90
47626;DHT22;33342;45.574;9.252;2022-11-20T11:02:34;11.90;99.90
47626;DHT22;33342;45.574;9.252;2022-11-20T11:05:44;11.90;99.90
47626;DHT22;33342;45.574;9.252;2022-11-20T11:08:15;12.00;99.90
47626;DHT22;33342;45.574;9.252;2022-11-20T11:13:49;12.10;99.90
47626;DHT22;33342;45.574;9.252;2022-11-20T11:16:22;12.10;99.90
47626;DHT22;33342;45.574;9.252;2022-11-20T11:18:50;12.10;99.90
47626;DHT22;33342;45.574;9.252;2022-11-20T11:21:24;12.10;99.90
47626;DHT22;33342;45.574;9.252;2022-11-20T11:23:59;12.10;99.90
47626;DHT22;33342;45.574;9.252;2022-11-20T11:26:58;12.20;99.90
47626;DHT22;33342;45.574;9.252;2022-11-20T11:29:26;12.30;99.90
47626;DHT22;33342;45.574;9.252;2022-11-20T11:32:07;12.30;99.90
47626;DHT22;33342;45.574;9.252;2022-11-20T11:34:35;12.30;99.90
47626;DHT22;33342;45.574;9.252;2022-11-20T11:37:02;12.30;99.90
47626;DHT22;33342;45.574;9.252;2022-11-20T11:39:32;12.40;99.90
47626;DHT22;33342;45.574;9.252;2022-11-20T11:42:00;12.40;99.90
47626;DHT22;33342;45.574;9.252;2022-11-20T11:44:33;12.40;99.90
47626;DHT22;33342;45.574;9.252;2022-11-20T11:47:25;12.50;99.90
47626;DHT22;33342;45.574;9.252;2022-11-20T12:10:02;12.70;99.90
47626;DHT22;33342;45.574;9.252;2022-11-20T12:12:41;12.70;99.90
47626;DHT22;33342;45.574;9.252;2022-11-20T12:15:28;12.70;99.90
47626;DHT22;33342;45.574;9.252;2022-11-20T12:18:00;12.70;99.90
47626;DHT22;33342;45.574;9.252;2022-11-20T12:20:38;12.80;99.90
47626;DHT22;33342;45.574;9.252;2022-11-20T12:23:21;12.80;99.90
47626;DHT22;33342;45.574;9.252;2022-11-20T12:25:54;12.80;99.90
47626;DHT22;33342;45.574;9.252;2022-11-20T12:28:32;12.90;99.90
47626;DHT22;33342;45.574;9.252;2022-11-20T12:31:46;12.90;99.90
47626;DHT22;33342;45.574;9.252;2022-11-20T12:37:40;12.90;99.90
47626;DHT22;33342;45.574;9.252;2022-11-20T12:39:48;13.00;99.90
47626;DHT22;33342;45.574;9.252;2022-11-20T12:48:32;13.10;99.90
47626;DHT22;33342;45.574;9.252;2022-11-20T13:00:30;13.30;99.90
47626;DHT22;33342;45.574;9.252;2022-11-20T13:05:44;13.50;99.90
47626;DHT22;33342;45.574;9.252;2022-11-20T13:08:34;13.80;99.90
47626;DHT22;33342;45.574;9.252;2022-11-20T13:11:18;14.20;99.90
47626;DHT22;33342;45.574;9.252;2022-11-20T13:14:13;14.80;99.90
47626;DHT22;33342;45.574;9.252;2022-11-20T13:17:28;15.40;99.90
47626;DHT22;33342;45.574;9.252;2022-11-20T13:19:35;15.90;99.90
47626;DHT22;33342;45.574;9.252;2022-11-20T13:22:02;16.40;99.90
47626;DHT22;33342;45.574;9.252;2022-11-20T13:24:31;16.70;99.90
47626;DHT22;33342;45.574;9.252;2022-11-20T13:29:35;17.00;99.90
47626;DHT22;33342;45.574;9.252;2022-11-20T13:32:05;17.10;99.90
47626;DHT22;33342;45.574;9.252;2022-11-20T13:34:34;17.10;99.90
47626;DHT22;33342;45.574;9.252;2022-11-20T13:37:02;17.00;99.90
47626;DHT22;33342;45.574;9.252;2022-11-20T13:39:34;17.00;99.90
47626;DHT22;33342;45.574;9.252;2022-11-20T13:42:20;16.80;99.90
47626;DHT22;33342;45.574;9.252;2022-11-20T13:44:53;16.70;99.90
47626;DHT22;33342;45.574;9.252;2022-11-20T13:47:23;16.60;99.90
47626;DHT22;33342;45.574;9.252;2022-11-20T13:49:55;16.50;99.90
47626;DHT22;33342;45.574;9.252;2022-11-20T14:01:16;16.10;99.90
47626;DHT22;33342;45.574;9.252;2022-11-20T14:03:45;16.10;99.90
47626;DHT22;33342;45.574;9.252;2022-11-20T14:06:41;16.00;99.90
47626;DHT22;33342;45.574;9.252;2022-11-20T14:09:27;16.00;99.90
47626;DHT22;33342;45.574;9.252;2022-11-20T14:11:55;16.10;99.90
47626;DHT22;33342;45.574;9.252;2022-11-20T14:14:27;16.20;99.90
47626;DHT22;33342;45.574;9.252;2022-11-20T14:17:08;16.50;99.90
47626;DHT22;33342;45.574;9.252;2022-11-20T14:19:45;16.80;99.90
47626;DHT22;33342;45.574;9.252;2022-11-20T14:22:19;17.10;99.90
47626;DHT22;33342;45.574;9.252;2022-11-20T14:25:21;17.50;99.90
47626;DHT22;33342;45.574;9.252;2022-11-20T14:27:43;18.00;99.90
47626;DHT22;33342;45.574;9.252;2022-11-20T14:30:24;18.40;99.90
47626;DHT22;33342;45.574;9.252;2022-11-20T14:32:56;18.80;99.90
47626;DHT22;33342;45.574;9.252;2022-11-20T14:35:25;19.20;99.90
47626;DHT22;33342;45.574;9.252;2022-11-20T14:37:54;19.50;99.90
47626;DHT22;33342;45.574;9.252;2022-11-20T14:42:49;19.70;99.90
47626;DHT22;33342;45.574;9.252;2022-11-20T14:45:16;19.60;99.90
47626;DHT22;33342;45.574;9.252;2022-11-20T14:47:44;19.40;99.90
47626;DHT22;33342;45.574;9.252;2022-11-20T14:50:29;19.30;99.90
47626;DHT22;33342;45.574;9.252;2022-11-20T14:52:59;19.10;99.90
47626;DHT22;33342;45.574;9.252;2022-11-20T14:55:36;19.10;99.90
47626;DHT22;33342;45.574;9.252;2022-11-20T14:58:31;19.00;99.90
47626;DHT22;33342;45.574;9.252;2022-11-20T15:00:59;18.90;99.90
47626;DHT22;33342;45.574;9.252;2022-11-20T15:03:41;18.90;99.90
47626;DHT22;33342;45.574;9.252;2022-11-20T15:06:11;18.90;99.90
47626;DHT22;33342;45.574;9.252;2022-11-20T15:08:50;18.70;99.90
47626;DHT22;33342;45.574;9.252;2022-11-20T15:11:20;18.30;99.90
47626;DHT22;33342;45.574;9.252;2022-11-20T15:13:50;17.90;99.90
47626;DHT22;33342;45.574;9.252;2022-11-20T15:16:19;17.50;99.90
47626;DHT22;33342;45.574;9.252;2022-11-20T15:18:47;17.10;99.90
47626;DHT22;33342;45.574;9.252;2022-11-20T15:21:16;16.80;99.90
47626;DHT22;33342;45.574;9.252;2022-11-20T15:23:44;16.60;99.90
47626;DHT22;33342;45.574;9.252;2022-11-20T15:26:12;16.30;99.90
47626;DHT22;33342;45.574;9.252;2022-11-20T15:28:47;16.20;99.90
47626;DHT22;33342;45.574;9.252;2022-11-20T15:31:17;16.00;99.90
47626;DHT22;33342;45.574;9.252;2022-11-20T15:33:45;15.80;99.90
47626;DHT22;33342;45.574;9.252;2022-11-20T15:36:12;15.70;99.90
47626;DHT22;33342;45.574;9.252;2022-11-20T15:38:39;15.60;99.90
47626;DHT22;33342;45.574;9.252;2022-11-20T15:41:07;15.40;99.90
47626;DHT22;33342;45.574;9.252;2022-11-20T15:43:34;15.40;99.90
47626;DHT22;33342;45.574;9.252;2022-11-20T15:48:51;15.10;99.90
47626;DHT22;33342;45.574;9.252;2022-11-20T15:51:35;15.00;99.90
47626;DHT22;33342;45.574;9.252;2022-11-20T15:54:17;15.00;99.90
47626;DHT22;33342;45.574;9.252;2022-11-20T15:56:48;14.90;99.90
47626;DHT22;33342;45.574;9.252;2022-11-20T15:59:15;14.80;99.90
47626;DHT22;33342;45.574;9.252;2022-11-20T16:01:42;14.70;99.90
47626;DHT22;33342;45.574;9.252;2022-11-20T16:04:14;14.60;99.90
47626;DHT22;33342;45.574;9.252;2022-11-20T16:06:42;14.60;99.90
47626;DHT22;33342;45.574;9.252;2022-11-20T16:09:09;14.50;99.90
47626;DHT22;33342;45.574;9.252;2022-11-20T16:11:36;14.50;99.90
47626;DHT22;33342;45.574;9.252;2022-11-20T16:14:05;14.40;99.90
47626;DHT22;33342;45.574;9.252;2022-11-20T16:16:51;14.40;99.90
47626;DHT22;33342;45.574;9.252;2022-11-20T16:19:18;14.30;99.90
47626;DHT22;33342;45.574;9.252;2022-11-20T16:21:45;14.30;99.90
47626;DHT22;33342;45.574;9.252;2022-11-20T16:24:13;14.30;99.90
47626;DHT22;33342;45.574;9.252;2022-11-20T16:26:41;14.20;99.90
47626;DHT22;33342;45.574;9.252;2022-11-20T16:29:08;14.20;99.90
47626;DHT22;33342;45.574;9.252;2022-11-20T16:31:35;14.10;99.90
47626;DHT22;33342;45.574;9.252;2022-11-20T16:34:05;14.10;99.90
47626;DHT22;33342;45.574;9.252;2022-11-20T16:36:41;14.10;99.90
47626;DHT22;33342;45.574;9.252;2022-11-20T16:39:11;14.00;99.90
47626;DHT22;33342;45.574;9.252;2022-11-20T16:41:38;14.00;99.90
47626;DHT22;33342;45.574;9.252;2022-11-20T16:44:10;14.00;99.90
47626;DHT22;33342;45.574;9.252;2022-11-20T16:46:38;14.00;99.90
47626;DHT22;33342;45.574;9.252;2022-11-20T16:49:11;13.90;99.90
47626;DHT22;33342;45.574;9.252;2022-11-20T16:51:39;13.90;99.90
47626;DHT22;33342;45.574;9.252;2022-11-20T16:54:07;13.90;99.90
47626;DHT22;33342;45.574;9.252;2022-11-20T16:56:35;13.80;99.90
47626;DHT22;33342;45.574;9.252;2022-11-20T16:59:02;13.90;99.90
47626;DHT22;33342;45.574;9.252;2022-11-20T17:01:29;13.80;99.90
47626;DHT22;33342;45.574;9.252;2022-11-20T17:04:02;13.80;99.90
47626;DHT22;33342;45.574;9.252;2022-11-20T17:06:31;13.80;99.90
47626;DHT22;33342;45.574;9.252;2022-11-20T17:09:00;13.80;99.90
47626;DHT22;33342;45.574;9.252;2022-11-20T17:11:27;13.70;99.90
47626;DHT22;33342;45.574;9.252;2022-11-20T17:13:56;13.70;99.90
47626;DHT22;33342;45.574;9.252;2022-11-20T17:16:24;13.70;99.90
47626;DHT22;33342;45.574;9.252;2022-11-20T17:18:52;13.70;99.90
47626;DHT22;33342;45.574;9.252;2022-11-20T17:21:26;13.70;99.90
47626;DHT22;33342;45.574;9.252;2022-11-20T17:23:55;13.70;99.90
47626;DHT22;33342;45.574;9.252;2022-11-20T17:26:22;13.60;99.90
47626;DHT22;33342;45.574;9.252;2022-11-20T17:28:58;13.60;99.90
47626;DHT22;33342;45.574;9.252;2022-11-20T17:31:27;13.50;99.90
47626;DHT22;33342;45.574;9.252;2022-11-20T17:33:54;13.50;99.90
47626;DHT22;33342;45.574;9.252;2022-11-20T17:36:21;13.40;99.90
47626;DHT22;33342;45.574;9.252;2022-11-20T17:38:48;13.30;99.90
47626;DHT22;33342;45.574;9.252;2022-11-20T17:41:18;13.30;99.90
47626;DHT22;33342;45.574;9.252;2022-11-20T17:43:45;13.30;99.90
47626;DHT22;33342;45.574;9.252;2022-11-20T17:46:20;13.30;99.90